Nrp Vasco Da Gama — CTFJ — position and weather

sailwx.info

Track history (hours):
 
Tides and Currents Weather Stations Pressure Air Temp Water Temp Dewpoint Dewpoint Depression Visibility Wind Speed Wind Dir Waves Ship Positions

Nrp Vasco Da Gama

Last reported at 2017-Oct-02 15:38 UTC. Time now 2017-Oct-19 02:02 UTC.
Position N 38°40' W 009°09'.
Warning: this ship's position is 16 days out of date.

Type: Military. MMSI: 263022000.

Date/timePositionNaut miles runAvg speedWind from/ knotsBaromVisibWave heightAir tempDewpointWater temp
2017-Oct-02 15:38N 38°40' W 009°09'0 4.0
2017-Oct-02 15:30N 38°41' W 009°08'3 6.3
2017-Oct-02 15:00N 38°41' W 009°12'611.6
2017-Oct-02 14:30N 38°39' W 009°19'713.9
2017-Oct-02 14:00N 38°35' W 009°26'5 9.0
2017-Oct-02 13:29N 38°35' W 009°32'510.7
2017-Oct-02 13:00N 38°40' W 009°33'1 3.0
2017-Oct-02 12:30N 38°40' W 009°35'3 6.3
2017-Oct-02 12:00N 38°41' W 009°38'713.2
2017-Oct-02 11:30N 38°39' W 009°31'612.5
2017-Oct-02 11:00N 38°37' W 009°23'612.4
2017-Oct-02 10:31N 38°41' W 009°17'510.4
2017-Oct-02 10:00N 38°42' W 009°10'2 3.8
2017-Oct-02 09:30N 38°40' W 009°09'0 0.3
2017-Oct-02 08:58N 38°40' W 009°09'0 0.0
2017-Oct-02 08:25N 38°40' W 009°09'0 0.0
2017-Oct-02 07:55N 38°40' W 009°09'0 0.0
2017-Oct-02 07:19N 38°40' W 009°09'0 0.0
2017-Oct-02 06:55N 38°40' W 009°09'0 0.0
2017-Oct-02 06:13N 38°40' W 009°09'0 0.0
2017-Oct-02 05:55N 38°40' W 009°09'0 0.0
2017-Oct-02 05:25N 38°40' W 009°09'0 0.0
2017-Oct-02 04:58N 38°40' W 009°09'0 0.0
2017-Oct-02 04:25N 38°40' W 009°09'0 0.0
2017-Oct-02 03:46N 38°40' W 009°09'0 0.0
2017-Oct-02 03:25N 38°40' W 009°09'0 0.0
2017-Oct-02 02:49N 38°40' W 009°09'0 0.0
2017-Oct-02 02:25N 38°40' W 009°09'0 0.0
2017-Oct-02 01:58N 38°40' W 009°09'0 0.0
2017-Oct-02 01:28N 38°40' W 009°09'0 0.0
2017-Oct-02 00:58N 38°40' W 009°09'0 0.0
2017-Oct-02 00:22N 38°40' W 009°09'0 0.0
2017-Oct-01 23:58N 38°40' W 009°09'0 0.0
2017-Oct-01 23:28N 38°40' W 009°09'0 0.0
2017-Oct-01 22:55N 38°40' W 009°09'0 0.0
2017-Oct-01 22:25N 38°40' W 009°09'0 0.0
2017-Oct-01 21:58N 38°40' W 009°09'0 0.0
2017-Oct-01 21:28N 38°40' W 009°09'0 0.0
2017-Oct-01 20:58N 38°40' W 009°09'0 0.0
2017-Oct-01 20:25N 38°40' W 009°09'0 0.0
2017-Oct-01 19:49N 38°40' W 009°09'0 0.0
2017-Oct-01 19:25N 38°40' W 009°09'0 0.0
2017-Oct-01 18:55N 38°40' W 009°09'0 0.0
2017-Oct-01 18:19N 38°40' W 009°09'0 0.0
2017-Oct-01 17:52N 38°40' W 009°09'0 0.0
2017-Oct-01 17:25N 38°40' W 009°09'0 0.0
2017-Oct-01 16:58N 38°40' W 009°09'0 0.0
2017-Oct-01 16:25N 38°40' W 009°09'0 0.0
2017-Oct-01 14:37N 38°40' W 009°09'0 0.0
2017-Oct-01 14:10N 38°40' W 009°09'0 0.0
2017-Oct-01 13:58N 38°40' W 009°09'0 0.0
2017-Oct-01 11:07N 38°40' W 009°09'0 0.0
2017-Oct-01 10:55N 38°40' W 009°09'0 0.0
2017-Oct-01 10:22N 38°40' W 009°09'0 0.0
2017-Oct-01 09:22N 38°40' W 009°09'0 0.0
2017-Oct-01 08:55N 38°40' W 009°09'0 0.0
2017-Oct-01 08:28N 38°40' W 009°09'0 0.0
2017-Oct-01 07:58N 38°40' W 009°09'0 0.0
2017-Oct-01 04:58N 38°40' W 009°09'0 0.0
2017-Oct-01 03:49N 38°40' W 009°09'0 0.0
2017-Oct-01 03:22N 38°40' W 009°09'0 0.0
2017-Sep-30 00:58N 38°40' W 009°09'0 0.0
2017-Sep-29 23:58N 38°40' W 009°09'0 0.0
2017-Sep-29 22:58N 38°40' W 009°09'0 0.0
2017-Sep-29 19:37N 38°40' W 009°09'0 0.0
2017-Sep-29 19:28N 38°40' W 009°09'0 0.0
2017-Sep-29 18:52N 38°40' W 009°09'0 0.0
2017-Sep-29 18:16N 38°40' W 009°09'0 0.0
2017-Sep-29 17:52N 38°40' W 009°09'0 0.0
2017-Sep-29 17:25N 38°40' W 009°09'0 0.0
2017-Sep-29 16:52N 38°40' W 009°09'0 0.0
2017-Sep-29 16:25N 38°40' W 009°09'0 0.0
2017-Sep-29 15:52N 38°40' W 009°09'0 0.0
2017-Sep-29 15:22N 38°40' W 009°09'0 0.0
2017-Sep-29 14:46N 38°40' W 009°09'0 0.0
2017-Sep-29 14:28N 38°40' W 009°09'0 0.0
2017-Sep-29 12:58N 38°40' W 009°09'0 0.0
2017-Sep-29 12:10N 38°40' W 009°09'0 0.0
2017-Sep-29 11:43N 38°40' W 009°09'0 0.0
2017-Sep-29 11:25N 38°40' W 009°09'0 0.0
2017-Sep-29 10:55N 38°40' W 009°09'0 0.0
2017-Sep-29 10:28N 38°40' W 009°09'0 0.0
2017-Sep-29 09:49N 38°40' W 009°09'0 0.0
2017-Sep-29 09:22N 38°40' W 009°09'0 0.0
2017-Sep-29 08:55N 38°40' W 009°09'0 0.0
2017-Sep-29 08:28N 38°40' W 009°09'0 0.0
2017-Sep-29 07:52N 38°40' W 009°09'0 0.0
2017-Sep-29 07:25N 38°40' W 009°09'0 0.0
2017-Sep-29 06:49N 38°40' W 009°09'0 0.0
2017-Sep-29 06:25N 38°40' W 009°09'0 0.0
2017-Sep-29 05:58N 38°40' W 009°09'0 0.0
2017-Sep-29 05:13N 38°40' W 009°09'0 0.0
2017-Sep-29 04:58N 38°40' W 009°09'0 0.0
2017-Sep-29 04:19N 38°40' W 009°09'0 0.0
2017-Sep-29 03:49N 38°40' W 009°09'0 0.0
2017-Sep-29 03:25N 38°40' W 009°09'0 0.0
2017-Sep-29 02:49N 38°40' W 009°09'0 0.0
2017-Sep-29 02:13N 38°40' W 009°09'0 0.0
2017-Sep-29 01:55N 38°40' W 009°09'0 0.0
2017-Sep-29 01:28N 38°40' W 009°09'0 0.0
2017-Sep-29 00:46N 38°40' W 009°09'0 0.0
2017-Sep-29 00:28N 38°40' W 009°09'0 0.0
2017-Sep-28 23:58N 38°40' W 009°09'0 0.0
2017-Sep-28 23:25N 38°40' W 009°09'0 0.0
2017-Sep-28 22:49N 38°40' W 009°09'0 0.0
2017-Sep-28 22:19N 38°40' W 009°09'0 0.0
2017-Sep-28 21:55N 38°40' W 009°09'0 0.0
2017-Sep-28 21:25N 38°40' W 009°09'0 0.0
2017-Sep-28 20:55N 38°40' W 009°09'0 0.0
2017-Sep-28 20:19N 38°40' W 009°09'0 0.0
2017-Sep-28 19:55N 38°40' W 009°09'0 0.0
2017-Sep-28 19:13N 38°40' W 009°09'0 0.0
2017-Sep-28 18:40N 38°40' W 009°09'0 0.0
2017-Sep-28 18:19N 38°40' W 009°09'0 0.0
2017-Sep-28 17:38N 38°40' W 009°09'0 2.7
2017-Sep-28 17:30N 38°40' W 009°08'2 4.0
2017-Sep-28 17:00N 38°41' W 009°11'2 2.6
2017-Sep-28 16:23N 38°41' W 009°13'0 0.0
2017-Sep-28 15:53N 38°41' W 009°13'0 0.0
2017-Sep-28 15:20N 38°41' W 009°13'0 0.0
2017-Sep-28 14:50N 38°41' W 009°13'0 0.1
2017-Sep-28 14:29N 38°41' W 009°13'0 0.1
2017-Sep-28 13:59N 38°41' W 009°13'0 0.0
2017-Sep-28 11:59N 38°41' W 009°13'0 0.0
2017-Sep-28 11:08N 38°41' W 009°13'0 0.0
2017-Sep-28 10:53N 38°41' W 009°13'0 0.2
2017-Sep-28 10:31N 38°41' W 009°13'0 0.1
2017-Sep-28 09:45N 38°41' W 009°13'0 0.0
2017-Sep-28 09:24N 38°41' W 009°13'0 0.1
2017-Sep-28 08:52N 38°41' W 009°13'1 2.9
2017-Sep-28 08:29N 38°41' W 009°11'3 4.9
2017-Sep-28 07:53N 38°42' W 009°08'0 0.0
2017-Sep-28 07:29N 38°42' W 009°08'0 0.0
2017-Sep-28 06:59N 38°42' W 009°08'0 0.0
2017-Sep-28 06:29N 38°42' W 009°08'0 0.0
2017-Sep-28 05:59N 38°42' W 009°08'0 0.0
2017-Sep-28 05:20N 38°42' W 009°08'0 0.0
2017-Sep-28 04:59N 38°42' W 009°08'0 0.0
2017-Sep-28 04:29N 38°42' W 009°08'0 0.0
2017-Sep-28 03:59N 38°42' W 009°08'0 0.0
2017-Sep-28 03:23N 38°42' W 009°08'0 0.1
2017-Sep-28 02:59N 38°42' W 009°08'0 0.0
2017-Sep-28 02:29N 38°42' W 009°08'0 0.0
2017-Sep-28 01:59N 38°42' W 009°08'0 0.0
2017-Sep-28 01:29N 38°42' W 009°08'0 0.0
2017-Sep-28 00:59N 38°42' W 009°08'0 0.0
2017-Sep-28 00:29N 38°42' W 009°08'0 0.0
2017-Sep-27 23:59N 38°42' W 009°08'0 0.0
2017-Sep-27 23:29N 38°42' W 009°08'0 0.0
2017-Sep-27 22:56N 38°42' W 009°08'0 0.0
2017-Sep-27 22:29N 38°42' W 009°08'0 0.0
2017-Sep-27 21:59N 38°42' W 009°08'0 0.0
2017-Sep-27 21:29N 38°42' W 009°08'0 0.0
2017-Sep-27 20:59N 38°42' W 009°08'0 0.0
2017-Sep-27 20:11N 38°42' W 009°08'0 0.0
2017-Sep-27 19:56N 38°42' W 009°07'0 0.0
2017-Sep-27 19:29N 38°42' W 009°07'0 0.0
2017-Sep-27 18:59N 38°42' W 009°08'0 0.0
2017-Sep-27 18:23N 38°42' W 009°07'0 0.1
2017-Sep-27 17:56N 38°42' W 009°07'0 0.0
2017-Sep-27 17:29N 38°42' W 009°07'0 0.2
2017-Sep-27 17:01N 38°42' W 009°07'4 7.5
2017-Sep-27 16:29N 38°41' W 009°12'0 0.1
2017-Sep-27 15:22N 38°41' W 009°13'0 0.0
2017-Sep-27 14:52N 38°41' W 009°13'0 0.0
2017-Sep-27 14:01N 38°41' W 009°13'0 0.0
2017-Sep-27 13:28N 38°41' W 009°13'0 0.1
2017-Sep-27 12:58N 38°41' W 009°13'0 0.0
2017-Sep-27 12:19N 38°41' W 009°13'0 0.0
2017-Sep-27 11:52N 38°41' W 009°13'0 0.0
2017-Sep-27 10:49N 38°41' W 009°13'0 0.0
2017-Sep-27 10:19N 38°41' W 009°13'0 0.0
2017-Sep-27 09:49N 38°41' W 009°13'1 2.1
2017-Sep-27 09:28N 38°41' W 009°14'2 3.5
2017-Sep-27 08:59N 38°41' W 009°12'3 5.4
2017-Sep-27 08:30N 38°40' W 009°08'0 0.6
2017-Sep-27 07:44N 38°40' W 009°09'0 0.0
2017-Sep-27 07:17N 38°40' W 009°09'0 0.0
2017-Sep-27 06:56N 38°40' W 009°09'0 0.0
2017-Sep-27 06:20N 38°40' W 009°09'0 0.0
2017-Sep-27 05:59N 38°40' W 009°09'0 0.0
2017-Sep-27 05:11N 38°40' W 009°09'0 0.0
2017-Sep-27 04:53N 38°40' W 009°09'0 0.0
2017-Sep-27 04:05N 38°40' W 009°09'0 0.0
2017-Sep-27 01:56N 38°40' W 009°09'0 0.0
2017-Sep-27 01:26N 38°40' W 009°09'0 0.0
2017-Sep-27 00:56N 38°40' W 009°09'0 0.0
2017-Sep-27 00:26N 38°40' W 009°09'0 0.0
2017-Sep-26 23:59N 38°40' W 009°09'0 0.0
2017-Sep-26 23:14N 38°40' W 009°09'0 0.0
2017-Sep-26 22:56N 38°40' W 009°09'0 0.0
2017-Sep-26 21:53N 38°40' W 009°09'0 0.0
2017-Sep-26 21:29N 38°40' W 009°09'0 0.0
2017-Sep-26 20:59N 38°40' W 009°09'0 0.0
2017-Sep-26 20:26N 38°40' W 009°09'0 0.0
2017-Sep-26 19:44N 38°40' W 009°09'0 0.0
2017-Sep-26 18:20N 38°40' W 009°09'0 0.0
2017-Sep-26 17:17N 38°40' W 009°09'0 0.0
2017-Sep-26 16:53N 38°40' W 009°09'0 0.0
2017-Sep-26 16:14N 38°40' W 009°09'0 0.0
2017-Sep-26 15:32N 38°40' W 009°09'0 0.0
2017-Sep-26 15:29N 38°40' W 009°09'0 0.0
2017-Sep-26 14:14N 38°40' W 009°09'0 0.0
2017-Sep-26 13:53N 38°40' W 009°09'0 0.0
2017-Sep-26 12:38N 38°40' W 009°09'0 0.0
2017-Sep-26 12:20N 38°40' W 009°09'0 0.0
2017-Sep-26 11:53N 38°40' W 009°09'0 0.0
2017-Sep-26 10:53N 38°40' W 009°09'0 0.0
2017-Sep-26 10:26N 38°40' W 009°09'0 0.0
2017-Sep-26 09:44N 38°40' W 009°09'0 0.0
2017-Sep-26 09:23N 38°40' W 009°09'0 0.0
2017-Sep-26 08:47N 38°40' W 009°09'0 0.0
2017-Sep-26 08:29N 38°40' W 009°09'0 0.0
2017-Sep-26 07:59N 38°40' W 009°09'0 0.0
2017-Sep-26 06:35N 38°40' W 009°09'0 0.0
2017-Sep-26 06:26N 38°40' W 009°09'0 0.0
2017-Sep-26 05:56N 38°40' W 009°09'0 0.0
2017-Sep-26 05:29N 38°40' W 009°09'0 0.0
2017-Sep-26 04:50N 38°40' W 009°09'0 0.0
2017-Sep-26 04:20N 38°40' W 009°09'0 0.0
2017-Sep-26 03:56N 38°40' W 009°09'0 0.0
2017-Sep-26 03:26N 38°40' W 009°09'0 0.0
2017-Sep-26 02:56N 38°40' W 009°09'0 0.0
2017-Sep-26 02:20N 38°40' W 009°09'0 0.0
2017-Sep-26 01:08N 38°40' W 009°09'0 0.0
2017-Sep-26 00:56N 38°40' W 009°09'0 0.0
2017-Sep-26 00:29N 38°40' W 009°09'0 0.0
2017-Sep-25 23:32N 38°40' W 009°09'0 0.0
2017-Sep-25 23:20N 38°40' W 009°09'0 0.0
2017-Sep-25 22:53N 38°40' W 009°09'0 0.0
2017-Sep-25 21:47N 38°40' W 009°09'0 0.0
2017-Sep-25 21:17N 38°40' W 009°09'0 0.0
2017-Sep-25 20:56N 38°40' W 009°09'0 0.0
2017-Sep-25 20:29N 38°40' W 009°09'0 0.0
2017-Sep-25 19:59N 38°40' W 009°09'0 0.0
2017-Sep-25 19:26N 38°40' W 009°09'0 0.0
2017-Sep-25 18:38N 38°40' W 009°09'0 0.0
2017-Sep-25 18:26N 38°40' W 009°09'0 0.0
2017-Sep-25 17:41N 38°40' W 009°09'0 0.0
2017-Sep-25 17:23N 38°40' W 009°09'0 0.0
2017-Sep-25 15:56N 38°40' W 009°09'0 0.0
2017-Sep-25 15:29N 38°40' W 009°09'0 0.0
2017-Sep-25 09:26N 38°40' W 009°09'0 0.0
2017-Sep-25 08:50N 38°40' W 009°09'0 0.0
2017-Sep-25 08:23N 38°40' W 009°09'0 0.0
2017-Sep-25 07:53N 38°40' W 009°09'0 0.0
2017-Sep-25 06:23N 38°40' W 009°09'0 0.0
2017-Sep-25 05:50N 38°40' W 009°09'0 0.0
2017-Sep-25 05:29N 38°40' W 009°09'0 0.0
2017-Sep-25 02:56N 38°40' W 009°09'0 0.0
2017-Sep-25 02:23N 38°40' W 009°09'0 0.0
2017-Sep-25 01:05N 38°40' W 009°09'0 0.0
2017-Sep-25 00:56N 38°40' W 009°09'0 0.0
2017-Sep-25 00:29N 38°40' W 009°09'0 0.0
2017-Sep-24 23:02N 38°40' W 009°09'0 0.0
2017-Sep-24 21:32N 38°40' W 009°09'0 0.0
2017-Sep-24 21:08N 38°40' W 009°09'0 0.0
2017-Sep-24 20:50N 38°40' W 009°09'0 0.0
2017-Sep-24 20:23N 38°40' W 009°09'0 0.0
2017-Sep-24 19:50N 38°40' W 009°09'0 0.0
2017-Sep-24 19:26N 38°40' W 009°09'0 0.0
2017-Sep-24 18:56N 38°40' W 009°09'0 0.0
2017-Sep-24 18:02N 38°40' W 009°09'0 0.0
2017-Sep-24 17:56N 38°40' W 009°09'0 0.0
2017-Sep-24 17:29N 38°40' W 009°09'0 0.0
2017-Sep-24 16:56N 38°40' W 009°09'0 0.0
2017-Sep-24 16:26N 38°40' W 009°09'0 0.0
2017-Sep-24 15:32N 38°40' W 009°09'0 0.0
2017-Sep-24 15:14N 38°40' W 009°09'0 0.0
2017-Sep-24 14:56N 38°40' W 009°09'0 0.0
2017-Sep-24 14:26N 38°40' W 009°09'0 0.0
2017-Sep-24 13:56N 38°40' W 009°09'0 0.0
2017-Sep-24 13:26N 38°40' W 009°09'0 0.0
2017-Sep-24 12:59N 38°40' W 009°09'0 0.0
2017-Sep-24 12:26N 38°40' W 009°09'0 0.0
2017-Sep-24 11:59N 38°40' W 009°09'0 0.0
2017-Sep-24 11:29N 38°40' W 009°09'0 0.0
2017-Sep-24 10:50N 38°40' W 009°09'0 0.0
2017-Sep-24 10:26N 38°40' W 009°09'0 0.0
2017-Sep-24 09:59N 38°40' W 009°09'0 0.0
2017-Sep-24 09:14N 38°40' W 009°09'0 0.0
2017-Sep-24 08:56N 38°40' W 009°09'0 0.0
2017-Sep-24 08:20N 38°40' W 009°09'0 0.0
2017-Sep-24 07:59N 38°40' W 009°09'0 0.0
2017-Sep-24 07:26N 38°40' W 009°09'0 0.0
2017-Sep-24 06:14N 38°40' W 009°09'0 0.0
2017-Sep-24 05:59N 38°40' W 009°09'0 0.0
2017-Sep-24 05:29N 38°40' W 009°09'0 0.0
2017-Sep-24 04:56N 38°40' W 009°09'0 0.0
2017-Sep-24 04:29N 38°40' W 009°09'0 0.0
2017-Sep-24 03:56N 38°40' W 009°09'0 0.0
2017-Sep-24 03:20N 38°40' W 009°09'0 0.0
2017-Sep-24 02:59N 38°40' W 009°09'0 0.0
2017-Sep-24 02:26N 38°40' W 009°09'0 0.0
2017-Sep-24 01:59N 38°40' W 009°09'0 0.0
2017-Sep-24 01:20N 38°40' W 009°09'0 0.0
2017-Sep-24 00:59N 38°40' W 009°09'0 0.0
2017-Sep-24 00:29N 38°40' W 009°09'0 0.0
2017-Sep-23 23:59N 38°40' W 009°09'0 0.0
2017-Sep-23 23:26N 38°40' W 009°09'0 0.0
2017-Sep-23 22:59N 38°40' W 009°09'0 0.0
2017-Sep-23 22:26N 38°40' W 009°09'0 0.0
2017-Sep-23 21:56N 38°40' W 009°09'0 0.0
2017-Sep-23 21:26N 38°40' W 009°09'0 0.0
2017-Sep-23 20:59N 38°40' W 009°09'0 0.0
2017-Sep-23 20:26N 38°40' W 009°09'0 0.0
2017-Sep-23 19:56N 38°40' W 009°09'  
Track history (hours):
 
Tides and Currents Weather Stations Pressure Air Temp Water Temp Dewpoint Dewpoint Depression Visibility Wind Speed Wind Dir Waves Ship Positions

Nrp Vasco Da Gama

Last reported at 2017-Oct-02 15:38 UTC. Time now 2017-Oct-19 02:02 UTC.
Position N 38°40' W 009°09'.
Warning: this ship's position is 16 days out of date.

Type: Military. MMSI: 263022000.

Date/timePositionNaut miles runAvg speedWind from/ knotsBaromVisibWave heightAir tempDewpointWater temp
2017-Oct-02 15:38N 38°40' W 009°09'0 4.0
2017-Oct-02 15:30N 38°41' W 009°08'3 6.3
2017-Oct-02 15:00N 38°41' W 009°12'611.6
2017-Oct-02 14:30N 38°39' W 009°19'713.9
2017-Oct-02 14:00N 38°35' W 009°26'5 9.0
2017-Oct-02 13:29N 38°35' W 009°32'510.7
2017-Oct-02 13:00N 38°40' W 009°33'1 3.0
2017-Oct-02 12:30N 38°40' W 009°35'3 6.3
2017-Oct-02 12:00N 38°41' W 009°38'713.2
2017-Oct-02 11:30N 38°39' W 009°31'612.5
2017-Oct-02 11:00N 38°37' W 009°23'612.4
2017-Oct-02 10:31N 38°41' W 009°17'510.4
2017-Oct-02 10:00N 38°42' W 009°10'2 3.8
2017-Oct-02 09:30N 38°40' W 009°09'0 0.3
2017-Oct-02 08:58N 38°40' W 009°09'0 0.0
2017-Oct-02 08:25N 38°40' W 009°09'0 0.0
2017-Oct-02 07:55N 38°40' W 009°09'0 0.0
2017-Oct-02 07:19N 38°40' W 009°09'0 0.0
2017-Oct-02 06:55N 38°40' W 009°09'0 0.0
2017-Oct-02 06:13N 38°40' W 009°09'0 0.0
2017-Oct-02 05:55N 38°40' W 009°09'0 0.0
2017-Oct-02 05:25N 38°40' W 009°09'0 0.0
2017-Oct-02 04:58N 38°40' W 009°09'0 0.0
2017-Oct-02 04:25N 38°40' W 009°09'0 0.0
2017-Oct-02 03:46N 38°40' W 009°09'0 0.0
2017-Oct-02 03:25N 38°40' W 009°09'0 0.0
2017-Oct-02 02:49N 38°40' W 009°09'0 0.0
2017-Oct-02 02:25N 38°40' W 009°09'0 0.0
2017-Oct-02 01:58N 38°40' W 009°09'0 0.0
2017-Oct-02 01:28N 38°40' W 009°09'0 0.0
2017-Oct-02 00:58N 38°40' W 009°09'0 0.0
2017-Oct-02 00:22N 38°40' W 009°09'0 0.0
2017-Oct-01 23:58N 38°40' W 009°09'0 0.0
2017-Oct-01 23:28N 38°40' W 009°09'0 0.0
2017-Oct-01 22:55N 38°40' W 009°09'0 0.0
2017-Oct-01 22:25N 38°40' W 009°09'0 0.0
2017-Oct-01 21:58N 38°40' W 009°09'0 0.0
2017-Oct-01 21:28N 38°40' W 009°09'0 0.0
2017-Oct-01 20:58N 38°40' W 009°09'0 0.0
2017-Oct-01 20:25N 38°40' W 009°09'0 0.0
2017-Oct-01 19:49N 38°40' W 009°09'0 0.0
2017-Oct-01 19:25N 38°40' W 009°09'0 0.0
2017-Oct-01 18:55N 38°40' W 009°09'0 0.0
2017-Oct-01 18:19N 38°40' W 009°09'0 0.0
2017-Oct-01 17:52N 38°40' W 009°09'0 0.0
2017-Oct-01 17:25N 38°40' W 009°09'0 0.0
2017-Oct-01 16:58N 38°40' W 009°09'0 0.0
2017-Oct-01 16:25N 38°40' W 009°09'0 0.0
2017-Oct-01 14:37N 38°40' W 009°09'0 0.0
2017-Oct-01 14:10N 38°40' W 009°09'0 0.0
2017-Oct-01 13:58N 38°40' W 009°09'0 0.0
2017-Oct-01 11:07N 38°40' W 009°09'0 0.0
2017-Oct-01 10:55N 38°40' W 009°09'0 0.0
2017-Oct-01 10:22N 38°40' W 009°09'0 0.0
2017-Oct-01 09:22N 38°40' W 009°09'0 0.0
2017-Oct-01 08:55N 38°40' W 009°09'0 0.0
2017-Oct-01 08:28N 38°40' W 009°09'0 0.0
2017-Oct-01 07:58N 38°40' W 009°09'0 0.0
2017-Oct-01 04:58N 38°40' W 009°09'0 0.0
2017-Oct-01 03:49N 38°40' W 009°09'0 0.0
2017-Oct-01 03:22N 38°40' W 009°09'0 0.0
2017-Sep-30 00:58N 38°40' W 009°09'0 0.0
2017-Sep-29 23:58N 38°40' W 009°09'0 0.0
2017-Sep-29 22:58N 38°40' W 009°09'0 0.0
2017-Sep-29 19:37N 38°40' W 009°09'0 0.0
2017-Sep-29 19:28N 38°40' W 009°09'0 0.0
2017-Sep-29 18:52N 38°40' W 009°09'0 0.0
2017-Sep-29 18:16N 38°40' W 009°09'0 0.0
2017-Sep-29 17:52N 38°40' W 009°09'0 0.0
2017-Sep-29 17:25N 38°40' W 009°09'0 0.0
2017-Sep-29 16:52N 38°40' W 009°09'0 0.0
2017-Sep-29 16:25N 38°40' W 009°09'0 0.0
2017-Sep-29 15:52N 38°40' W 009°09'0 0.0
2017-Sep-29 15:22N 38°40' W 009°09'0 0.0
2017-Sep-29 14:46N 38°40' W 009°09'0 0.0
2017-Sep-29 14:28N 38°40' W 009°09'0 0.0
2017-Sep-29 12:58N 38°40' W 009°09'0 0.0
2017-Sep-29 12:10N 38°40' W 009°09'0 0.0
2017-Sep-29 11:43N 38°40' W 009°09'0 0.0
2017-Sep-29 11:25N 38°40' W 009°09'0 0.0
2017-Sep-29 10:55N 38°40' W 009°09'0 0.0
2017-Sep-29 10:28N 38°40' W 009°09'0 0.0
2017-Sep-29 09:49N 38°40' W 009°09'0 0.0
2017-Sep-29 09:22N 38°40' W 009°09'0 0.0
2017-Sep-29 08:55N 38°40' W 009°09'0 0.0
2017-Sep-29 08:28N 38°40' W 009°09'0 0.0
2017-Sep-29 07:52N 38°40' W 009°09'0 0.0
2017-Sep-29 07:25N 38°40' W 009°09'0 0.0
2017-Sep-29 06:49N 38°40' W 009°09'0 0.0
2017-Sep-29 06:25N 38°40' W 009°09'0 0.0
2017-Sep-29 05:58N 38°40' W 009°09'0 0.0
2017-Sep-29 05:13N 38°40' W 009°09'0 0.0
2017-Sep-29 04:58N 38°40' W 009°09'0 0.0
2017-Sep-29 04:19N 38°40' W 009°09'0 0.0
2017-Sep-29 03:49N 38°40' W 009°09'0 0.0
2017-Sep-29 03:25N 38°40' W 009°09'0 0.0
2017-Sep-29 02:49N 38°40' W 009°09'0 0.0
2017-Sep-29 02:13N 38°40' W 009°09'0 0.0
2017-Sep-29 01:55N 38°40' W 009°09'0 0.0
2017-Sep-29 01:28N 38°40' W 009°09'0 0.0
2017-Sep-29 00:46N 38°40' W 009°09'0 0.0
2017-Sep-29 00:28N 38°40' W 009°09'0 0.0
2017-Sep-28 23:58N 38°40' W 009°09'0 0.0
2017-Sep-28 23:25N 38°40' W 009°09'0 0.0
2017-Sep-28 22:49N 38°40' W 009°09'0 0.0
2017-Sep-28 22:19N 38°40' W 009°09'0 0.0
2017-Sep-28 21:55N 38°40' W 009°09'0 0.0
2017-Sep-28 21:25N 38°40' W 009°09'0 0.0
2017-Sep-28 20:55N 38°40' W 009°09'0 0.0
2017-Sep-28 20:19N 38°40' W 009°09'0 0.0
2017-Sep-28 19:55N 38°40' W 009°09'0 0.0
2017-Sep-28 19:13N 38°40' W 009°09'0 0.0
2017-Sep-28 18:40N 38°40' W 009°09'0 0.0
2017-Sep-28 18:19N 38°40' W 009°09'0 0.0
2017-Sep-28 17:38N 38°40' W 009°09'0 2.7
2017-Sep-28 17:30N 38°40' W 009°08'2 4.0
2017-Sep-28 17:00N 38°41' W 009°11'2 2.6
2017-Sep-28 16:23N 38°41' W 009°13'0 0.0
2017-Sep-28 15:53N 38°41' W 009°13'0 0.0
2017-Sep-28 15:20N 38°41' W 009°13'0 0.0
2017-Sep-28 14:50N 38°41' W 009°13'0 0.1
2017-Sep-28 14:29N 38°41' W 009°13'0 0.1
2017-Sep-28 13:59N 38°41' W 009°13'0 0.0
2017-Sep-28 11:59N 38°41' W 009°13'0 0.0
2017-Sep-28 11:08N 38°41' W 009°13'0 0.0
2017-Sep-28 10:53N 38°41' W 009°13'0 0.2
2017-Sep-28 10:31N 38°41' W 009°13'0 0.1
2017-Sep-28 09:45N 38°41' W 009°13'0 0.0
2017-Sep-28 09:24N 38°41' W 009°13'0 0.1
2017-Sep-28 08:52N 38°41' W 009°13'1 2.9
2017-Sep-28 08:29N 38°41' W 009°11'3 4.9
2017-Sep-28 07:53N 38°42' W 009°08'0 0.0
2017-Sep-28 07:29N 38°42' W 009°08'0 0.0
2017-Sep-28 06:59N 38°42' W 009°08'0 0.0
2017-Sep-28 06:29N 38°42' W 009°08'0 0.0
2017-Sep-28 05:59N 38°42' W 009°08'0 0.0
2017-Sep-28 05:20N 38°42' W 009°08'0 0.0
2017-Sep-28 04:59N 38°42' W 009°08'0 0.0
2017-Sep-28 04:29N 38°42' W 009°08'0 0.0
2017-Sep-28 03:59N 38°42' W 009°08'0 0.0
2017-Sep-28 03:23N 38°42' W 009°08'0 0.1
2017-Sep-28 02:59N 38°42' W 009°08'0 0.0
2017-Sep-28 02:29N 38°42' W 009°08'0 0.0
2017-Sep-28 01:59N 38°42' W 009°08'0 0.0
2017-Sep-28 01:29N 38°42' W 009°08'0 0.0
2017-Sep-28 00:59N 38°42' W 009°08'0 0.0
2017-Sep-28 00:29N 38°42' W 009°08'0 0.0
2017-Sep-27 23:59N 38°42' W 009°08'0 0.0
2017-Sep-27 23:29N 38°42' W 009°08'0 0.0
2017-Sep-27 22:56N 38°42' W 009°08'0 0.0
2017-Sep-27 22:29N 38°42' W 009°08'0 0.0
2017-Sep-27 21:59N 38°42' W 009°08'0 0.0
2017-Sep-27 21:29N 38°42' W 009°08'0 0.0
2017-Sep-27 20:59N 38°42' W 009°08'0 0.0
2017-Sep-27 20:11N 38°42' W 009°08'0 0.0
2017-Sep-27 19:56N 38°42' W 009°07'0 0.0
2017-Sep-27 19:29N 38°42' W 009°07'0 0.0
2017-Sep-27 18:59N 38°42' W 009°08'0 0.0
2017-Sep-27 18:23N 38°42' W 009°07'0 0.1
2017-Sep-27 17:56N 38°42' W 009°07'0 0.0
2017-Sep-27 17:29N 38°42' W 009°07'0 0.2
2017-Sep-27 17:01N 38°42' W 009°07'4 7.5
2017-Sep-27 16:29N 38°41' W 009°12'0 0.1
2017-Sep-27 15:22N 38°41' W 009°13'0 0.0
2017-Sep-27 14:52N 38°41' W 009°13'0 0.0
2017-Sep-27 14:01N 38°41' W 009°13'0 0.0
2017-Sep-27 13:28N 38°41' W 009°13'0 0.1
2017-Sep-27 12:58N 38°41' W 009°13'0 0.0
2017-Sep-27 12:19N 38°41' W 009°13'0 0.0
2017-Sep-27 11:52N 38°41' W 009°13'0 0.0
2017-Sep-27 10:49N 38°41' W 009°13'0 0.0
2017-Sep-27 10:19N 38°41' W 009°13'0 0.0
2017-Sep-27 09:49N 38°41' W 009°13'1 2.1
2017-Sep-27 09:28N 38°41' W 009°14'2 3.5
2017-Sep-27 08:59N 38°41' W 009°12'3 5.4
2017-Sep-27 08:30N 38°40' W 009°08'0 0.6
2017-Sep-27 07:44N 38°40' W 009°09'0 0.0
2017-Sep-27 07:17N 38°40' W 009°09'0 0.0
2017-Sep-27 06:56N 38°40' W 009°09'0 0.0
2017-Sep-27 06:20N 38°40' W 009°09'0 0.0
2017-Sep-27 05:59N 38°40' W 009°09'0 0.0
2017-Sep-27 05:11N 38°40' W 009°09'0 0.0
2017-Sep-27 04:53N 38°40' W 009°09'0 0.0
2017-Sep-27 04:05N 38°40' W 009°09'0 0.0
2017-Sep-27 01:56N 38°40' W 009°09'0 0.0
2017-Sep-27 01:26N 38°40' W 009°09'0 0.0
2017-Sep-27 00:56N 38°40' W 009°09'0 0.0
2017-Sep-27 00:26N 38°40' W 009°09'0 0.0
2017-Sep-26 23:59N 38°40' W 009°09'0 0.0
2017-Sep-26 23:14N 38°40' W 009°09'0 0.0
2017-Sep-26 22:56N 38°40' W 009°09'0 0.0
2017-Sep-26 21:53N 38°40' W 009°09'0 0.0
2017-Sep-26 21:29N 38°40' W 009°09'0 0.0
2017-Sep-26 20:59N 38°40' W 009°09'0 0.0
2017-Sep-26 20:26N 38°40' W 009°09'0 0.0
2017-Sep-26 19:44N 38°40' W 009°09'0 0.0
2017-Sep-26 18:20N 38°40' W 009°09'0 0.0
2017-Sep-26 17:17N 38°40' W 009°09'0 0.0
2017-Sep-26 16:53N 38°40' W 009°09'0 0.0
2017-Sep-26 16:14N 38°40' W 009°09'0 0.0
2017-Sep-26 15:32N 38°40' W 009°09'0 0.0
2017-Sep-26 15:29N 38°40' W 009°09'0 0.0
2017-Sep-26 14:14N 38°40' W 009°09'0 0.0
2017-Sep-26 13:53N 38°40' W 009°09'0 0.0
2017-Sep-26 12:38N 38°40' W 009°09'0 0.0
2017-Sep-26 12:20N 38°40' W 009°09'0 0.0
2017-Sep-26 11:53N 38°40' W 009°09'0 0.0
2017-Sep-26 10:53N 38°40' W 009°09'0 0.0
2017-Sep-26 10:26N 38°40' W 009°09'0 0.0
2017-Sep-26 09:44N 38°40' W 009°09'0 0.0
2017-Sep-26 09:23N 38°40' W 009°09'0 0.0
2017-Sep-26 08:47N 38°40' W 009°09'0 0.0
2017-Sep-26 08:29N 38°40' W 009°09'0 0.0
2017-Sep-26 07:59N 38°40' W 009°09'0 0.0
2017-Sep-26 06:35N 38°40' W 009°09'0 0.0
2017-Sep-26 06:26N 38°40' W 009°09'0 0.0
2017-Sep-26 05:56N 38°40' W 009°09'0 0.0
2017-Sep-26 05:29N 38°40' W 009°09'0 0.0
2017-Sep-26 04:50N 38°40' W 009°09'0 0.0
2017-Sep-26 04:20N 38°40' W 009°09'0 0.0
2017-Sep-26 03:56N 38°40' W 009°09'0 0.0
2017-Sep-26 03:26N 38°40' W 009°09'0 0.0
2017-Sep-26 02:56N 38°40' W 009°09'0 0.0
2017-Sep-26 02:20N 38°40' W 009°09'0 0.0
2017-Sep-26 01:08N 38°40' W 009°09'0 0.0
2017-Sep-26 00:56N 38°40' W 009°09'0 0.0
2017-Sep-26 00:29N 38°40' W 009°09'0 0.0
2017-Sep-25 23:32N 38°40' W 009°09'0 0.0
2017-Sep-25 23:20N 38°40' W 009°09'0 0.0
2017-Sep-25 22:53N 38°40' W 009°09'0 0.0
2017-Sep-25 21:47N 38°40' W 009°09'0 0.0
2017-Sep-25 21:17N 38°40' W 009°09'0 0.0
2017-Sep-25 20:56N 38°40' W 009°09'0 0.0
2017-Sep-25 20:29N 38°40' W 009°09'0 0.0
2017-Sep-25 19:59N 38°40' W 009°09'0 0.0
2017-Sep-25 19:26N 38°40' W 009°09'0 0.0
2017-Sep-25 18:38N 38°40' W 009°09'0 0.0
2017-Sep-25 18:26N 38°40' W 009°09'0 0.0
2017-Sep-25 17:41N 38°40' W 009°09'0 0.0
2017-Sep-25 17:23N 38°40' W 009°09'0 0.0
2017-Sep-25 15:56N 38°40' W 009°09'0 0.0
2017-Sep-25 15:29N 38°40' W 009°09'0 0.0
2017-Sep-25 09:26N 38°40' W 009°09'0 0.0
2017-Sep-25 08:50N 38°40' W 009°09'0 0.0
2017-Sep-25 08:23N 38°40' W 009°09'0 0.0
2017-Sep-25 07:53N 38°40' W 009°09'0 0.0
2017-Sep-25 06:23N 38°40' W 009°09'0 0.0
2017-Sep-25 05:50N 38°40' W 009°09'0 0.0
2017-Sep-25 05:29N 38°40' W 009°09'0 0.0
2017-Sep-25 02:56N 38°40' W 009°09'0 0.0
2017-Sep-25 02:23N 38°40' W 009°09'0 0.0
2017-Sep-25 01:05N 38°40' W 009°09'0 0.0
2017-Sep-25 00:56N 38°40' W 009°09'0 0.0
2017-Sep-25 00:29N 38°40' W 009°09'0 0.0
2017-Sep-24 23:02N 38°40' W 009°09'0 0.0
2017-Sep-24 21:32N 38°40' W 009°09'0 0.0
2017-Sep-24 21:08N 38°40' W 009°09'0 0.0
2017-Sep-24 20:50N 38°40' W 009°09'0 0.0
2017-Sep-24 20:23N 38°40' W 009°09'0 0.0
2017-Sep-24 19:50N 38°40' W 009°09'0 0.0
2017-Sep-24 19:26N 38°40' W 009°09'0 0.0
2017-Sep-24 18:56N 38°40' W 009°09'0 0.0
2017-Sep-24 18:02N 38°40' W 009°09'0 0.0
2017-Sep-24 17:56N 38°40' W 009°09'0 0.0
2017-Sep-24 17:29N 38°40' W 009°09'0 0.0
2017-Sep-24 16:56N 38°40' W 009°09'0 0.0
2017-Sep-24 16:26N 38°40' W 009°09'0 0.0
2017-Sep-24 15:32N 38°40' W 009°09'0 0.0
2017-Sep-24 15:14N 38°40' W 009°09'0 0.0
2017-Sep-24 14:56N 38°40' W 009°09'0 0.0
2017-Sep-24 14:26N 38°40' W 009°09'0 0.0
2017-Sep-24 13:56N 38°40' W 009°09'0 0.0
2017-Sep-24 13:26N 38°40' W 009°09'0 0.0
2017-Sep-24 12:59N 38°40' W 009°09'0 0.0
2017-Sep-24 12:26N 38°40' W 009°09'0 0.0
2017-Sep-24 11:59N 38°40' W 009°09'0 0.0
2017-Sep-24 11:29N 38°40' W 009°09'0 0.0
2017-Sep-24 10:50N 38°40' W 009°09'0 0.0
2017-Sep-24 10:26N 38°40' W 009°09'0 0.0
2017-Sep-24 09:59N 38°40' W 009°09'0 0.0
2017-Sep-24 09:14N 38°40' W 009°09'0 0.0
2017-Sep-24 08:56N 38°40' W 009°09'0 0.0
2017-Sep-24 08:20N 38°40' W 009°09'0 0.0
2017-Sep-24 07:59N 38°40' W 009°09'0 0.0
2017-Sep-24 07:26N 38°40' W 009°09'0 0.0
2017-Sep-24 06:14N 38°40' W 009°09'0 0.0
2017-Sep-24 05:59N 38°40' W 009°09'0 0.0
2017-Sep-24 05:29N 38°40' W 009°09'0 0.0
2017-Sep-24 04:56N 38°40' W 009°09'0 0.0
2017-Sep-24 04:29N 38°40' W 009°09'0 0.0
2017-Sep-24 03:56N 38°40' W 009°09'0 0.0
2017-Sep-24 03:20N 38°40' W 009°09'0 0.0
2017-Sep-24 02:59N 38°40' W 009°09'0 0.0
2017-Sep-24 02:26N 38°40' W 009°09'0 0.0
2017-Sep-24 01:59N 38°40' W 009°09'0 0.0
2017-Sep-24 01:20N 38°40' W 009°09'0 0.0
2017-Sep-24 00:59N 38°40' W 009°09'0 0.0
2017-Sep-24 00:29N 38°40' W 009°09'0 0.0
2017-Sep-23 23:59N 38°40' W 009°09'0 0.0
2017-Sep-23 23:26N 38°40' W 009°09'0 0.0
2017-Sep-23 22:59N 38°40' W 009°09'0 0.0
2017-Sep-23 22:26N 38°40' W 009°09'0 0.0
2017-Sep-23 21:56N 38°40' W 009°09'0 0.0
2017-Sep-23 21:26N 38°40' W 009°09'0 0.0
2017-Sep-23 20:59N 38°40' W 009°09'0 0.0
2017-Sep-23 20:26N 38°40' W 009°09'0 0.0
2017-Sep-23 19:56N 38°40' W 009°09'  

Dump ship's entire track history